createdAt,value
2022-09-22T00:00:59.835Z,8.30
2022-09-22T00:03:30.956Z,10.57
2022-09-22T00:06:00.539Z,10.13
2022-09-22T00:08:28.289Z,8.87
2022-09-22T00:11:03.705Z,11.37
2022-09-22T00:13:31.674Z,10.73
2022-09-22T00:16:00.412Z,29.10
2022-09-22T00:18:30.586Z,13.63
2022-09-22T00:20:58.111Z,10.33
2022-09-22T00:23:26.080Z,6.80
2022-09-22T00:25:54.489Z,10.97
2022-09-22T00:28:22.803Z,10.47
2022-09-22T00:30:50.320Z,7.20
2022-09-22T00:33:17.874Z,12.90
2022-09-22T00:35:56.884Z,9.20
2022-09-22T00:38:25.149Z,8.03
2022-09-22T00:40:52.776Z,10.77
2022-09-22T00:43:22.497Z,12.20
2022-09-22T00:45:53.242Z,13.10
2022-09-22T00:48:22.361Z,10.33
2022-09-22T00:50:52.778Z,10.07
2022-09-22T00:53:22.022Z,9.70
2022-09-22T00:55:51.517Z,12.90
2022-09-22T00:58:21.050Z,17.33
2022-09-22T01:00:48.972Z,8.77
2022-09-22T01:03:18.514Z,8.17
2022-09-22T01:05:49.012Z,13.00
2022-09-22T01:08:19.007Z,7.53
2022-09-22T01:10:48.240Z,11.93
2022-09-22T01:13:23.369Z,8.80
2022-09-22T01:15:56.114Z,10.27
2022-09-22T01:18:28.794Z,13.90
2022-09-22T01:21:15.383Z,10.07
2022-09-22T01:24:07.214Z,10.87
2022-09-22T01:26:50.343Z,7.97
2022-09-22T01:29:27.825Z,8.50
2022-09-22T01:31:59.414Z,9.43
2022-09-22T01:34:29.580Z,9.53
2022-09-22T01:37:03.798Z,9.13
2022-09-22T01:39:34.203Z,8.60
2022-09-22T01:42:05.032Z,9.87
2022-09-22T01:44:33.957Z,13.90
2022-09-22T01:47:05.833Z,18.83
2022-09-22T01:49:34.810Z,9.63
2022-09-22T01:52:04.418Z,8.37
2022-09-22T01:54:34.067Z,13.63
2022-09-22T01:57:05.798Z,7.43
2022-09-22T01:59:36.115Z,10.37
2022-09-22T02:02:07.875Z,9.47
2022-09-22T02:04:36.899Z,8.20
2022-09-22T02:07:06.193Z,6.93
2022-09-22T02:09:34.973Z,10.60
2022-09-22T02:12:03.409Z,8.20
2022-09-22T02:14:31.200Z,8.57
2022-09-22T02:17:00.012Z,8.67
2022-09-22T02:19:33.350Z,7.60
2022-09-22T02:22:01.536Z,8.70
2022-09-22T02:24:30.278Z,8.97
2022-09-22T02:26:58.753Z,7.03
2022-09-22T02:29:27.853Z,9.10
2022-09-22T02:31:56.352Z,10.27
2022-09-22T02:34:24.209Z,7.17
2022-09-22T02:36:56.642Z,7.00
2022-09-22T02:39:28.583Z,7.73
2022-09-22T02:42:07.287Z,7.17
2022-09-22T02:44:37.059Z,7.10
2022-09-22T02:47:07.349Z,6.60
2022-09-22T02:49:35.399Z,8.53
2022-09-22T02:52:09.095Z,5.47
2022-09-22T02:54:36.752Z,10.40
2022-09-22T02:57:04.547Z,9.20
2022-09-22T02:59:32.712Z,7.50
2022-09-22T03:02:00.611Z,6.27
2022-09-22T03:04:28.578Z,6.57
2022-09-22T03:06:56.551Z,13.20
2022-09-22T03:09:25.853Z,10.17
2022-09-22T03:11:53.602Z,7.83
2022-09-22T03:14:21.177Z,6.80
2022-09-22T03:16:48.764Z,9.07
2022-09-22T03:19:16.304Z,6.33
2022-09-22T03:21:44.275Z,7.40
2022-09-22T03:24:11.721Z,7.97
2022-09-22T03:26:40.777Z,6.70
2022-09-22T03:29:08.603Z,9.90
2022-09-22T03:31:36.147Z,8.97
2022-09-22T03:34:04.431Z,6.90
2022-09-22T03:36:32.217Z,8.90
2022-09-22T03:39:00.348Z,9.53
2022-09-22T03:41:27.975Z,10.40
2022-09-22T03:43:57.067Z,8.93
2022-09-22T03:46:24.999Z,8.80
2022-09-22T03:48:52.560Z,7.90
2022-09-22T03:51:20.471Z,8.33
2022-09-22T03:53:48.070Z,8.10
2022-09-22T03:56:16.515Z,7.00
2022-09-22T03:58:44.491Z,7.00
2022-09-22T04:01:13.636Z,7.83
2022-09-22T04:03:41.435Z,9.53
2022-09-22T04:06:09.475Z,8.77
2022-09-22T04:08:37.359Z,9.30
2022-09-22T04:11:05.542Z,7.87
2022-09-22T04:13:35.478Z,12.03
2022-09-22T04:16:04.136Z,8.70
2022-09-22T04:18:33.038Z,8.97
2022-09-22T04:21:01.270Z,7.90
2022-09-22T04:23:28.987Z,9.40
2022-09-22T04:25:56.571Z,6.23
2022-09-22T04:28:24.083Z,7.17
2022-09-22T04:30:51.775Z,6.40
2022-09-22T04:33:19.302Z,7.53
2022-09-22T04:35:50.546Z,9.47
2022-09-22T04:38:18.555Z,9.13
2022-09-22T04:40:46.386Z,9.23
2022-09-22T04:43:14.290Z,10.00
2022-09-22T04:45:43.813Z,6.70
2022-09-22T04:48:11.602Z,9.97
2022-09-22T04:50:39.310Z,12.33
2022-09-22T04:53:09.148Z,7.50
2022-09-22T04:55:37.121Z,9.67
2022-09-22T04:58:04.984Z,9.80
2022-09-22T05:00:32.620Z,11.13
2022-09-22T05:03:01.954Z,10.60
2022-09-22T05:05:29.920Z,8.60
2022-09-22T05:07:57.421Z,8.97
2022-09-22T05:10:27.176Z,7.17
2022-09-22T05:12:54.730Z,11.80
2022-09-22T05:15:22.739Z,9.30
2022-09-22T05:17:50.896Z,11.30
2022-09-22T05:20:19.131Z,8.80
2022-09-22T05:22:47.343Z,8.63
2022-09-22T05:25:15.945Z,12.93
2022-09-22T05:27:46.238Z,17.20
2022-09-22T05:30:14.038Z,14.17
2022-09-22T05:32:43.779Z,14.10
2022-09-22T05:35:11.855Z,9.93
2022-09-22T05:37:39.321Z,14.70
2022-09-22T05:40:07.855Z,8.07
2022-09-22T05:42:35.476Z,7.40
2022-09-22T05:45:04.599Z,14.90
2022-09-22T05:47:34.333Z,11.57
2022-09-22T05:50:02.278Z,11.90
2022-09-22T05:52:29.804Z,8.07
2022-09-22T05:54:58.084Z,13.00
2022-09-22T05:57:27.689Z,8.47
2022-09-22T05:59:55.575Z,11.30
2022-09-22T06:02:26.433Z,9.47
2022-09-22T06:04:54.810Z,9.03
2022-09-22T06:07:22.557Z,17.10
2022-09-22T06:09:50.849Z,11.73
2022-09-22T06:12:18.955Z,9.73
2022-09-22T06:14:46.397Z,9.50
2022-09-22T06:17:13.965Z,10.63
2022-09-22T06:19:43.459Z,12.47
2022-09-22T06:22:11.611Z,10.17
2022-09-22T06:24:39.463Z,10.93
2022-09-22T06:27:07.651Z,19.23
2022-09-22T06:29:36.491Z,9.03
2022-09-22T06:32:04.045Z,21.87
2022-09-22T06:34:33.058Z,21.80
2022-09-22T06:37:02.250Z,30.10
2022-09-22T06:39:30.062Z,21.10
2022-09-22T06:41:57.884Z,21.60
2022-09-22T06:44:26.241Z,11.23
2022-09-22T06:46:53.764Z,13.90
2022-09-22T06:49:21.610Z,18.73
2022-09-22T06:51:49.424Z,7.70
2022-09-22T06:54:18.857Z,6.53
2022-09-22T06:56:47.235Z,17.60
2022-09-22T06:59:16.651Z,9.10
2022-09-22T07:01:45.487Z,7.57
2022-09-22T07:04:13.473Z,8.67
2022-09-22T07:06:42.617Z,9.13
2022-09-22T07:09:10.227Z,9.00
2022-09-22T07:11:40.482Z,7.20
2022-09-22T07:14:08.324Z,6.77
2022-09-22T07:16:36.374Z,6.20
2022-09-22T07:19:04.925Z,6.17
2022-09-22T07:21:35.190Z,10.53
2022-09-22T07:24:03.629Z,7.93
2022-09-22T07:26:32.698Z,10.10
2022-09-22T07:29:02.252Z,8.67
2022-09-22T07:31:31.935Z,6.50
2022-09-22T07:34:00.496Z,4.40
2022-09-22T07:36:29.144Z,6.70
2022-09-22T07:38:58.088Z,6.50
2022-09-22T07:41:27.632Z,4.67
2022-09-22T07:43:56.633Z,5.50
2022-09-22T07:46:25.501Z,10.90
2022-09-22T07:48:53.246Z,4.80
2022-09-22T07:51:21.746Z,7.40
2022-09-22T07:53:51.736Z,8.63
2022-09-22T07:56:21.425Z,9.30
2022-09-22T07:58:50.022Z,7.87
2022-09-22T08:01:18.406Z,8.43
2022-09-22T08:03:47.544Z,7.33
2022-09-22T08:06:16.620Z,7.53
2022-09-22T08:08:46.163Z,7.50
2022-09-22T08:11:14.871Z,5.80
2022-09-22T08:13:44.198Z,12.00
2022-09-22T08:16:11.931Z,5.10
2022-09-22T08:18:40.889Z,7.80
2022-09-22T08:21:09.783Z,6.77
2022-09-22T08:23:37.727Z,6.20
2022-09-22T08:26:05.899Z,6.13
2022-09-22T08:28:33.587Z,3.83
2022-09-22T08:31:01.438Z,4.30
2022-09-22T08:33:30.959Z,9.13
2022-09-22T08:35:59.158Z,8.10
2022-09-22T08:38:28.242Z,4.80
2022-09-22T08:41:03.326Z,8.00
2022-09-22T08:43:32.337Z,4.90
2022-09-22T08:46:01.087Z,6.07
2022-09-22T08:48:46.619Z,4.60
2022-09-22T08:51:33.673Z,9.03
2022-09-22T08:54:04.223Z,5.07
2022-09-22T08:56:34.530Z,4.60
2022-09-22T08:59:04.959Z,3.60
2022-09-22T09:01:46.246Z,4.50
2022-09-22T09:04:29.003Z,3.57
2022-09-22T09:07:01.221Z,3.33
2022-09-22T09:09:53.797Z,4.63
2022-09-22T09:12:27.986Z,3.20
2022-09-22T09:15:08.750Z,5.70
2022-09-22T09:17:38.402Z,3.70
2022-09-22T09:20:16.806Z,3.10
2022-09-22T09:22:48.590Z,2.90
2022-09-22T09:25:23.017Z,3.50
2022-09-22T09:27:54.790Z,3.80
2022-09-22T09:30:23.150Z,11.30
2022-09-22T09:32:52.651Z,2.40
2022-09-22T09:35:26.933Z,6.70
2022-09-22T09:37:55.857Z,6.53
2022-09-22T09:40:23.624Z,7.70
2022-09-22T09:42:56.470Z,4.27
2022-09-22T09:45:26.928Z,33.30
2022-09-22T09:48:01.891Z,21.60
2022-09-22T09:50:32.318Z,10.53
2022-09-22T09:53:00.702Z,5.13
2022-09-22T09:55:28.841Z,3.30
2022-09-22T09:58:05.838Z,3.93
2022-09-22T10:00:33.878Z,13.33
2022-09-22T10:03:05.766Z,6.83
2022-09-22T10:05:37.702Z,10.23
2022-09-22T10:08:15.586Z,3.13
2022-09-22T10:10:44.437Z,3.77
2022-09-22T10:13:36.047Z,8.10
2022-09-22T10:16:07.690Z,4.50
2022-09-22T10:18:37.737Z,3.60
2022-09-22T10:21:07.125Z,2.90
2022-09-22T10:23:34.696Z,3.57
2022-09-22T10:26:16.462Z,4.97
2022-09-22T10:28:44.270Z,8.90
2022-09-22T10:31:21.079Z,5.87
2022-09-22T10:33:56.584Z,4.80
2022-09-22T10:36:26.123Z,5.67
2022-09-22T10:38:57.348Z,4.80
2022-09-22T10:41:34.241Z,4.20
2022-09-22T10:44:21.293Z,5.77
2022-09-22T10:47:05.334Z,5.40
2022-09-22T10:49:41.715Z,8.17
2022-09-22T10:52:11.473Z,5.07
2022-09-22T10:54:59.352Z,3.50
2022-09-22T10:57:31.491Z,3.97
2022-09-22T11:00:04.319Z,3.50
2022-09-22T11:02:46.427Z,4.30
2022-09-22T11:05:44.213Z,8.53
2022-09-22T11:08:31.922Z,4.87
2022-09-22T11:11:21.233Z,6.30
2022-09-22T11:13:55.161Z,6.70
2022-09-22T11:16:28.647Z,4.27
2022-09-22T11:19:14.215Z,3.43
2022-09-22T11:21:49.428Z,6.20
2022-09-22T11:24:37.861Z,8.10
2022-09-22T11:27:07.329Z,3.90
2022-09-22T11:29:50.961Z,3.47
2022-09-22T11:32:28.179Z,6.90
2022-09-22T11:38:01.671Z,10.73
2022-09-22T11:40:47.212Z,5.03
2022-09-22T11:43:31.761Z,4.07
2022-09-22T11:46:04.766Z,7.73
2022-09-22T11:48:39.338Z,8.97
2022-09-22T11:51:18.260Z,5.23
2022-09-22T11:54:03.859Z,6.47
2022-09-22T11:56:39.856Z,3.90
2022-09-22T11:59:13.770Z,3.30
2022-09-22T12:01:42.698Z,5.17
2022-09-22T12:04:16.153Z,4.67
2022-09-22T12:06:47.729Z,6.60
2022-09-22T12:09:21.468Z,5.97
2022-09-22T12:11:49.518Z,2.73
2022-09-22T12:14:17.283Z,2.87
2022-09-22T12:16:48.634Z,3.93
2022-09-22T12:19:22.081Z,3.93
2022-09-22T12:21:53.619Z,4.10
2022-09-22T12:24:21.627Z,4.10
2022-09-22T12:26:50.993Z,6.63
2022-09-22T12:29:24.254Z,9.37
2022-09-22T12:31:53.611Z,2.77
2022-09-22T12:34:22.311Z,5.43
2022-09-22T12:36:52.597Z,4.80
2022-09-22T12:39:21.941Z,5.07
2022-09-22T12:41:52.264Z,6.20
2022-09-22T12:44:22.038Z,3.97
2022-09-22T12:46:50.210Z,5.10
2022-09-22T12:49:19.083Z,3.47
2022-09-22T12:51:47.098Z,5.93
2022-09-22T12:54:47.842Z,3.33
2022-09-22T12:57:29.959Z,6.37
2022-09-22T12:59:59.731Z,3.77
2022-09-22T13:02:29.377Z,7.10
2022-09-22T13:05:15.676Z,3.20
2022-09-22T13:07:46.860Z,2.50
2022-09-22T13:10:32.140Z,5.50
2022-09-22T13:13:17.749Z,4.50
2022-09-22T13:16:00.100Z,12.10
2022-09-22T13:18:28.669Z,5.87
2022-09-22T13:20:56.226Z,6.97
2022-09-22T13:23:23.694Z,9.20
2022-09-22T13:25:51.875Z,4.33
2022-09-22T13:28:21.011Z,4.00
2022-09-22T13:31:01.222Z,4.93
2022-09-22T13:33:34.976Z,5.07
2022-09-22T13:36:04.517Z,6.80
2022-09-22T13:38:33.977Z,3.20
2022-09-22T13:41:01.577Z,5.40
2022-09-22T13:43:32.214Z,4.30
2022-09-22T13:46:01.236Z,2.40
2022-09-22T13:48:31.173Z,3.60
2022-09-22T13:51:02.486Z,4.90
2022-09-22T13:53:31.096Z,4.20
2022-09-22T13:55:59.026Z,4.83
2022-09-22T13:58:35.055Z,3.50
2022-09-22T14:01:13.537Z,2.83
2022-09-22T14:03:42.346Z,3.53
2022-09-22T14:06:13.841Z,3.67
2022-09-22T14:08:42.438Z,7.20
2022-09-22T14:11:13.514Z,3.43
2022-09-22T14:13:44.981Z,2.60
2022-09-22T14:16:21.675Z,3.13
2022-09-22T14:18:51.441Z,2.90
2022-09-22T14:21:21.305Z,2.90
2022-09-22T14:23:50.032Z,3.30
2022-09-22T14:26:21.238Z,6.73
2022-09-22T14:28:49.160Z,4.00
2022-09-22T14:31:21.360Z,4.03
2022-09-22T14:33:49.006Z,9.80
2022-09-22T14:36:18.477Z,4.23
2022-09-22T14:39:04.330Z,2.67
2022-09-22T14:41:36.924Z,4.20
2022-09-22T14:44:19.655Z,3.50
2022-09-22T14:46:47.178Z,3.23
2022-09-22T14:49:35.870Z,4.33
2022-09-22T14:52:03.826Z,4.60
2022-09-22T14:54:34.788Z,3.80
2022-09-22T14:57:04.341Z,4.20
2022-09-22T14:59:52.014Z,7.13
2022-09-22T15:02:36.073Z,4.90
2022-09-22T15:05:04.283Z,4.63
2022-09-22T15:07:33.621Z,4.33
2022-09-22T15:10:03.517Z,11.60
2022-09-22T15:12:35.001Z,4.33
2022-09-22T15:15:03.058Z,6.60
2022-09-22T15:17:56.629Z,5.40
2022-09-22T15:20:26.855Z,3.60
2022-09-22T15:22:55.045Z,4.90
2022-09-22T15:25:24.521Z,3.43
2022-09-22T15:27:53.564Z,5.60
2022-09-22T15:30:21.851Z,2.90
2022-09-22T15:32:49.648Z,3.60
2022-09-22T15:35:20.915Z,8.40
2022-09-22T15:37:50.157Z,3.73
2022-09-22T15:40:19.316Z,4.17
2022-09-22T15:43:09.004Z,4.43
2022-09-22T15:45:37.232Z,5.37
2022-09-22T15:48:05.075Z,6.03
2022-09-22T15:50:32.688Z,3.57
2022-09-22T15:53:00.298Z,5.53
2022-09-22T15:55:28.151Z,3.43
2022-09-22T15:58:09.052Z,6.03
2022-09-22T16:00:38.044Z,5.60
2022-09-22T16:03:13.653Z,4.90
2022-09-22T16:05:41.871Z,5.67
2022-09-22T16:08:13.562Z,5.60
2022-09-22T16:10:42.805Z,3.37
2022-09-22T16:13:12.757Z,5.00
2022-09-22T16:15:40.483Z,3.93
2022-09-22T16:18:08.588Z,4.30
2022-09-22T16:20:37.360Z,3.90
2022-09-22T16:23:05.796Z,8.50
2022-09-22T16:25:33.630Z,4.33
2022-09-22T16:28:01.178Z,5.10
2022-09-22T16:30:30.275Z,2.97
2022-09-22T16:32:57.928Z,3.97
2022-09-22T16:35:25.493Z,3.47
2022-09-22T16:46:30.107Z,4.70
2022-09-22T16:49:00.286Z,6.80
2022-09-22T16:51:28.635Z,8.30
2022-09-22T16:53:56.568Z,4.47
2022-09-22T16:56:24.991Z,4.53
2022-09-22T16:58:52.867Z,8.50
2022-09-22T17:01:21.983Z,5.87
2022-09-22T17:03:50.268Z,3.40
2022-09-22T17:06:25.363Z,5.10
2022-09-22T17:08:53.904Z,6.73
2022-09-22T17:11:23.370Z,10.50
2022-09-22T17:13:50.934Z,7.37
2022-09-22T17:16:20.948Z,16.93
2022-09-22T17:18:50.820Z,12.30
2022-09-22T17:21:21.899Z,12.00
2022-09-22T17:23:50.580Z,8.07
2022-09-22T17:26:18.898Z,8.90
2022-09-22T17:28:46.511Z,8.63
2022-09-22T17:31:15.132Z,12.20
2022-09-22T17:33:46.973Z,13.40
2022-09-22T17:36:20.743Z,16.30
2022-09-22T17:38:50.576Z,12.13
2022-09-22T17:41:19.940Z,11.53
2022-09-22T17:43:48.689Z,11.87
2022-09-22T17:46:17.227Z,14.20
2022-09-22T17:49:02.259Z,12.17
2022-09-22T17:51:51.979Z,11.63
2022-09-22T17:54:38.931Z,13.00
2022-09-22T17:57:07.231Z,12.30
2022-09-22T17:59:34.775Z,11.90
2022-09-22T18:02:03.798Z,12.53
2022-09-22T18:04:31.521Z,12.17
2022-09-22T18:07:02.542Z,26.17
2022-09-22T18:09:32.205Z,17.70
2022-09-22T18:11:59.836Z,14.10
2022-09-22T18:14:27.447Z,12.83
2022-09-22T18:16:55.322Z,11.00
2022-09-22T18:19:22.789Z,17.73
2022-09-22T18:21:50.712Z,8.77
2022-09-22T18:24:19.691Z,11.60
2022-09-22T18:26:47.513Z,13.33
2022-09-22T18:29:16.931Z,16.43
2022-09-22T18:31:46.499Z,12.73
2022-09-22T18:34:14.526Z,13.43
2022-09-22T18:36:42.322Z,18.33
2022-09-22T18:39:10.188Z,28.07
2022-09-22T18:41:39.547Z,16.67
2022-09-22T18:44:09.117Z,18.67
2022-09-22T18:46:37.083Z,17.30
2022-09-22T18:49:05.889Z,17.27
2022-09-22T18:51:33.896Z,18.20
2022-09-22T18:54:07.968Z,18.83
2022-09-22T18:56:36.445Z,15.47
2022-09-22T18:59:05.697Z,18.57
2022-09-22T19:01:35.454Z,17.60
2022-09-22T19:04:03.491Z,16.83
2022-09-22T19:06:52.198Z,20.33
2022-09-22T19:09:20.018Z,22.77
2022-09-22T19:16:02.016Z,27.13
2022-09-22T19:18:31.586Z,27.13
2022-09-22T19:21:03.764Z,21.93
2022-09-22T19:23:32.228Z,22.60
2022-09-22T19:25:59.847Z,33.93
2022-09-22T19:28:28.778Z,31.87
2022-09-22T19:30:56.353Z,20.13
2022-09-22T19:33:25.240Z,17.17
2022-09-22T19:35:52.767Z,22.30
2022-09-22T19:38:20.445Z,35.37
2022-09-22T19:40:48.028Z,27.20
2022-09-22T19:43:15.905Z,21.90
2022-09-22T19:45:43.798Z,19.30
2022-09-22T19:48:12.030Z,26.93
2022-09-22T19:50:41.114Z,24.63
2022-09-22T19:53:08.926Z,25.63
2022-09-22T19:55:36.439Z,22.80
2022-09-22T19:58:04.155Z,32.77
2022-09-22T20:00:31.993Z,23.93
2022-09-22T20:02:59.812Z,22.33
2022-09-22T20:05:28.857Z,19.30
2022-09-22T20:07:57.857Z,17.60
2022-09-22T20:10:25.521Z,20.83
2022-09-22T20:12:53.498Z,24.33
2022-09-22T20:15:21.042Z,21.30
2022-09-22T20:17:48.883Z,26.03
2022-09-22T20:20:17.643Z,25.20
2022-09-22T20:22:46.569Z,41.70
2022-09-22T20:25:21.706Z,32.57
2022-09-22T20:27:49.836Z,31.03
2022-09-22T20:30:19.990Z,24.07
2022-09-22T20:32:47.920Z,33.20
2022-09-22T20:35:17.888Z,31.20
2022-09-22T20:37:45.851Z,31.27
2022-09-22T20:40:14.619Z,27.83
2022-09-22T20:42:45.607Z,25.27
2022-09-22T20:45:14.171Z,35.63
2022-09-22T20:47:42.192Z,25.30
2022-09-22T20:50:11.854Z,34.97
2022-09-22T20:52:40.438Z,26.70
2022-09-22T20:55:08.551Z,27.93
2022-09-22T20:57:37.015Z,24.70
2022-09-22T21:00:07.009Z,32.30
2022-09-22T21:02:34.687Z,26.33
2022-09-22T21:05:02.537Z,24.57
2022-09-22T21:07:32.257Z,28.70
2022-09-22T21:10:17.637Z,30.83
2022-09-22T21:12:45.762Z,28.30
2022-09-22T21:15:15.054Z,28.47
2022-09-22T21:17:43.940Z,49.70
2022-09-22T21:20:12.157Z,25.90
2022-09-22T21:22:40.712Z,27.60
2022-09-22T21:25:08.619Z,24.20
2022-09-22T21:27:37.468Z,23.83
2022-09-22T21:30:05.427Z,24.97
2022-09-22T21:32:35.151Z,25.87
2022-09-22T21:35:03.195Z,30.53
2022-09-22T21:37:31.309Z,26.60
2022-09-22T21:40:00.258Z,30.77
2022-09-22T21:42:28.336Z,30.63
2022-09-22T21:44:56.086Z,29.43
2022-09-22T21:47:24.166Z,29.80
2022-09-22T21:49:53.468Z,33.43
2022-09-22T21:52:21.166Z,31.47
2022-09-22T21:54:49.291Z,30.20
2022-09-22T21:57:18.199Z,30.40
2022-09-22T21:59:45.639Z,32.10
2022-09-22T22:02:13.335Z,45.67
2022-09-22T22:04:41.209Z,23.83
2022-09-22T22:07:11.847Z,31.80
2022-09-22T22:09:39.767Z,32.03
2022-09-22T22:12:07.477Z,33.10
2022-09-22T22:14:35.038Z,30.70
2022-09-22T22:17:03.237Z,41.40
2022-09-22T22:19:31.223Z,33.27
2022-09-22T22:21:58.853Z,27.87
2022-09-22T22:24:39.030Z,24.80
2022-09-22T22:27:07.766Z,27.80
2022-09-22T22:29:36.239Z,27.27
2022-09-22T22:32:06.121Z,27.77
2022-09-22T22:34:33.667Z,26.10
2022-09-22T22:37:01.369Z,24.03
2022-09-22T22:39:30.628Z,27.00
2022-09-22T22:41:58.264Z,26.00
2022-09-22T22:44:25.897Z,27.97
2022-09-22T22:46:53.779Z,24.97
2022-09-22T22:49:21.378Z,31.70
2022-09-22T22:51:50.359Z,41.07
2022-09-22T22:54:17.853Z,47.23
2022-09-22T22:56:51.058Z,33.77
2022-09-22T22:59:19.408Z,27.60
2022-09-22T23:01:47.503Z,26.63
2022-09-22T23:04:16.565Z,27.13
2022-09-22T23:06:44.838Z,24.83
2022-09-22T23:09:14.094Z,29.17
2022-09-22T23:11:41.991Z,24.00
2022-09-22T23:14:11.899Z,22.03
2022-09-22T23:16:40.911Z,21.53
2022-09-22T23:19:09.309Z,21.87
2022-09-22T23:21:37.092Z,22.03
2022-09-22T23:24:05.151Z,25.10
2022-09-22T23:26:33.036Z,20.10
2022-09-22T23:29:01.395Z,23.17
2022-09-22T23:31:31.726Z,22.00
2022-09-22T23:33:59.436Z,17.60
2022-09-22T23:36:28.254Z,20.60
2022-09-22T23:38:56.479Z,23.27
2022-09-22T23:41:24.107Z,24.73
2022-09-22T23:43:52.013Z,18.40
2022-09-22T23:46:21.232Z,27.60
2022-09-22T23:48:50.187Z,18.47
2022-09-22T23:51:19.504Z,18.73
2022-09-22T23:53:47.565Z,20.00
2022-09-22T23:56:14.998Z,18.20
2022-09-22T23:58:42.788Z,17.00
